This is the latest recevied weather packets stored in our database for station/object VA3JLF-1. If no packets are shown the sender has not sent any weather packets the latest 10 day(s).
| Time | Temp. | Humidity | Pressure | Rain* | Wind** | Luminosity | Snow |
|---|---|---|---|---|---|---|---|
| 1777952158 | 12.22° C | 68% | 998.1 hPa | 0 mm | - | - | - |
| 1777951557 | 12.22° C | 68% | 998.2 hPa | 0 mm | - | - | - |
| 1777950958 | 11.67° C | 70% | 998.3 hPa | 0 mm | - | - | - |
| 1777950357 | 11.67° C | 70% | 998.1 hPa | 0 mm | - | - | - |
| 1777949758 | 11.11° C | 71% | 998.4 hPa | 0 mm | - | - | - |
| 1777949158 | 11.11° C | 69% | 998.5 hPa | 0 mm | - | - | - |
| 1777948558 | 11.67° C | 69% | 998.3 hPa | 0 mm | - | - | - |
| 1777947957 | 11.67° C | 68% | 998.3 hPa | 0 mm | - | - | - |
| 1777947358 | 12.22° C | 67% | 998.6 hPa | 0 mm | - | - | - |
| 1777946758 | 12.22° C | 66% | 998.6 hPa | 0 mm | - | - | - |
| 1777946157 | 12.78° C | 66% | 998.9 hPa | 0 mm | - | - | - |
| 1777945557 | 12.22° C | 70% | 998.7 hPa | 0 mm | - | - | - |
| 1777944957 | 12.22° C | 68% | 998.8 hPa | 0 mm | - | - | - |
| 1777944358 | 12.78° C | 66% | 998.7 hPa | 0 mm | - | - | - |
| 1777943757 | 13.33° C | 63% | 998.7 hPa | 0 mm | - | - | - |
| 1777943157 | 13.89° C | 62% | 998.7 hPa | 0 mm | - | - | - |
| 1777942557 | 13.89° C | 62% | 998.6 hPa | 0 mm | - | - | - |
| 1777941958 | 13.89° C | 62% | 998.5 hPa | 0 mm | - | - | - |
| 1777941357 | 14.44° C | 62% | 998.7 hPa | 0 mm | - | - | - |
| 1777940757 | 14.44° C | 60% | 998.6 hPa | 0 mm | - | - | - |
| 1777940158 | 15° C | 58% | 998.7 hPa | 0 mm | - | - | - |
| 1777939558 | 15° C | 60% | 998.8 hPa | 0 mm | - | - | - |
| 1777938957 | 15.56° C | 57% | 998.8 hPa | 0 mm | - | - | - |
| 1777938357 | 15.56° C | 60% | 998.5 hPa | 0 mm | - | - | - |
| 1777937158 | 16.11° C | 59% | 998.9 hPa | 0 mm | - | - | - |
* Rain latest hour (hover to see other rain measurements)
** Current wind speed in m/s (hover to see current wind gust speed)